sensor_id;sensor_type;location;lat;lon;timestamp;P1;durP1;ratioP1;P2;durP2;ratioP2
73678;SDS011;61978;52.742;16.962;2023-05-07T00:01:33;15.70;;;11.20;;
73678;SDS011;61978;52.742;16.962;2023-05-07T00:03:58;16.60;;;10.70;;
73678;SDS011;61978;52.742;16.962;2023-05-07T00:06:24;15.10;;;10.70;;
73678;SDS011;61978;52.742;16.962;2023-05-07T00:08:51;25.20;;;12.20;;
73678;SDS011;61978;52.742;16.962;2023-05-07T00:11:16;15.20;;;10.70;;
73678;SDS011;61978;52.742;16.962;2023-05-07T00:13:42;13.80;;;10.60;;
73678;SDS011;61978;52.742;16.962;2023-05-07T00:16:07;15.20;;;10.70;;
73678;SDS011;61978;52.742;16.962;2023-05-07T00:18:33;17.50;;;11.20;;
73678;SDS011;61978;52.742;16.962;2023-05-07T00:20:59;16.80;;;9.70;;
73678;SDS011;61978;52.742;16.962;2023-05-07T00:23:24;16.30;;;11.00;;
73678;SDS011;61978;52.742;16.962;2023-05-07T00:25:50;16.50;;;10.60;;
73678;SDS011;61978;52.742;16.962;2023-05-07T00:28:15;17.10;;;10.40;;
73678;SDS011;61978;52.742;16.962;2023-05-07T00:30:41;16.30;;;10.20;;
73678;SDS011;61978;52.742;16.962;2023-05-07T00:33:06;15.80;;;11.30;;
73678;SDS011;61978;52.742;16.962;2023-05-07T00:35:32;16.90;;;11.30;;
73678;SDS011;61978;52.742;16.962;2023-05-07T00:37:57;16.20;;;11.10;;
73678;SDS011;61978;52.742;16.962;2023-05-07T00:40:23;15.00;;;10.20;;
73678;SDS011;61978;52.742;16.962;2023-05-07T00:42:48;18.80;;;10.70;;
73678;SDS011;61978;52.742;16.962;2023-05-07T00:45:15;17.20;;;11.10;;
73678;SDS011;61978;52.742;16.962;2023-05-07T00:47:42;17.10;;;10.90;;
73678;SDS011;61978;52.742;16.962;2023-05-07T00:50:08;18.00;;;10.70;;
73678;SDS011;61978;52.742;16.962;2023-05-07T00:52:36;21.10;;;11.80;;
73678;SDS011;61978;52.742;16.962;2023-05-07T00:55:04;15.30;;;11.10;;
73678;SDS011;61978;52.742;16.962;2023-05-07T00:57:29;16.90;;;11.50;;
73678;SDS011;61978;52.742;16.962;2023-05-07T00:59:57;15.80;;;11.50;;
73678;SDS011;61978;52.742;16.962;2023-05-07T01:02:23;18.60;;;13.00;;
73678;SDS011;61978;52.742;16.962;2023-05-07T01:04:49;22.20;;;13.00;;
73678;SDS011;61978;52.742;16.962;2023-05-07T01:07:14;20.80;;;12.10;;
73678;SDS011;61978;52.742;16.962;2023-05-07T01:09:40;20.40;;;12.80;;
73678;SDS011;61978;52.742;16.962;2023-05-07T01:12:06;17.00;;;12.30;;
73678;SDS011;61978;52.742;16.962;2023-05-07T01:14:32;19.90;;;13.50;;
73678;SDS011;61978;52.742;16.962;2023-05-07T01:16:58;20.90;;;12.70;;
73678;SDS011;61978;52.742;16.962;2023-05-07T01:19:25;18.40;;;13.00;;
73678;SDS011;61978;52.742;16.962;2023-05-07T01:21:53;18.20;;;12.90;;
73678;SDS011;61978;52.742;16.962;2023-05-07T01:24:24;19.70;;;13.80;;
73678;SDS011;61978;52.742;16.962;2023-05-07T01:26:50;18.80;;;13.00;;
73678;SDS011;61978;52.742;16.962;2023-05-07T01:29:16;24.60;;;13.00;;
73678;SDS011;61978;52.742;16.962;2023-05-07T01:31:42;23.00;;;14.70;;
73678;SDS011;61978;52.742;16.962;2023-05-07T01:34:08;24.60;;;14.00;;
73678;SDS011;61978;52.742;16.962;2023-05-07T01:36:35;20.80;;;13.70;;
73678;SDS011;61978;52.742;16.962;2023-05-07T01:39:02;23.20;;;13.80;;
73678;SDS011;61978;52.742;16.962;2023-05-07T01:41:28;17.30;;;12.70;;
73678;SDS011;61978;52.742;16.962;2023-05-07T01:43:54;20.60;;;14.10;;
73678;SDS011;61978;52.742;16.962;2023-05-07T01:46:20;20.20;;;13.90;;
73678;SDS011;61978;52.742;16.962;2023-05-07T01:48:46;22.00;;;12.20;;
73678;SDS011;61978;52.742;16.962;2023-05-07T01:51:12;26.20;;;11.50;;
73678;SDS011;61978;52.742;16.962;2023-05-07T01:53:39;24.90;;;11.70;;
73678;SDS011;61978;52.742;16.962;2023-05-07T01:56:06;18.90;;;12.10;;
73678;SDS011;61978;52.742;16.962;2023-05-07T01:58:32;18.80;;;12.10;;
73678;SDS011;61978;52.742;16.962;2023-05-07T02:00:58;21.80;;;10.30;;
73678;SDS011;61978;52.742;16.962;2023-05-07T02:03:24;14.80;;;9.50;;
73678;SDS011;61978;52.742;16.962;2023-05-07T02:05:54;19.70;;;10.80;;
73678;SDS011;61978;52.742;16.962;2023-05-07T02:08:31;21.30;;;12.40;;
73678;SDS011;61978;52.742;16.962;2023-05-07T02:10:57;18.60;;;10.40;;
73678;SDS011;61978;52.742;16.962;2023-05-07T02:13:24;18.80;;;11.30;;
73678;SDS011;61978;52.742;16.962;2023-05-07T02:15:49;20.00;;;11.70;;
73678;SDS011;61978;52.742;16.962;2023-05-07T02:18:16;20.80;;;11.60;;
73678;SDS011;61978;52.742;16.962;2023-05-07T02:20:42;22.30;;;12.10;;
73678;SDS011;61978;52.742;16.962;2023-05-07T02:23:07;20.70;;;11.60;;
73678;SDS011;61978;52.742;16.962;2023-05-07T02:25:33;16.00;;;10.50;;
73678;SDS011;61978;52.742;16.962;2023-05-07T02:27:59;19.70;;;11.10;;
73678;SDS011;61978;52.742;16.962;2023-05-07T02:30:35;18.30;;;11.10;;
73678;SDS011;61978;52.742;16.962;2023-05-07T02:33:01;21.00;;;11.20;;
73678;SDS011;61978;52.742;16.962;2023-05-07T02:35:27;22.00;;;12.20;;
73678;SDS011;61978;52.742;16.962;2023-05-07T02:37:56;25.30;;;13.00;;
73678;SDS011;61978;52.742;16.962;2023-05-07T02:40:22;30.20;;;13.10;;
73678;SDS011;61978;52.742;16.962;2023-05-07T02:42:48;23.50;;;12.40;;
73678;SDS011;61978;52.742;16.962;2023-05-07T02:45:14;24.80;;;11.10;;
73678;SDS011;61978;52.742;16.962;2023-05-07T02:47:40;23.70;;;11.50;;
73678;SDS011;61978;52.742;16.962;2023-05-07T02:50:06;22.60;;;13.00;;
73678;SDS011;61978;52.742;16.962;2023-05-07T02:52:33;21.10;;;12.00;;
73678;SDS011;61978;52.742;16.962;2023-05-07T02:54:58;19.80;;;11.60;;
73678;SDS011;61978;52.742;16.962;2023-05-07T02:57:24;22.40;;;11.70;;
73678;SDS011;61978;52.742;16.962;2023-05-07T02:59:49;18.20;;;10.50;;
73678;SDS011;61978;52.742;16.962;2023-05-07T03:02:16;21.30;;;11.30;;
73678;SDS011;61978;52.742;16.962;2023-05-07T03:04:42;20.60;;;10.40;;
73678;SDS011;61978;52.742;16.962;2023-05-07T03:07:07;18.30;;;11.20;;
73678;SDS011;61978;52.742;16.962;2023-05-07T03:09:33;21.80;;;11.60;;
73678;SDS011;61978;52.742;16.962;2023-05-07T03:11:58;24.40;;;11.70;;
73678;SDS011;61978;52.742;16.962;2023-05-07T03:14:24;20.50;;;11.00;;
73678;SDS011;61978;52.742;16.962;2023-05-07T03:16:50;18.20;;;11.10;;
73678;SDS011;61978;52.742;16.962;2023-05-07T03:19:16;17.40;;;10.50;;
73678;SDS011;61978;52.742;16.962;2023-05-07T03:21:41;21.10;;;11.70;;
73678;SDS011;61978;52.742;16.962;2023-05-07T03:24:07;21.10;;;11.00;;
73678;SDS011;61978;52.742;16.962;2023-05-07T03:26:33;16.90;;;11.10;;
73678;SDS011;61978;52.742;16.962;2023-05-07T03:28:59;17.70;;;10.70;;
73678;SDS011;61978;52.742;16.962;2023-05-07T03:31:24;16.80;;;9.00;;
73678;SDS011;61978;52.742;16.962;2023-05-07T03:33:53;17.20;;;9.70;;
73678;SDS011;61978;52.742;16.962;2023-05-07T03:36:18;16.30;;;10.60;;
73678;SDS011;61978;52.742;16.962;2023-05-07T03:38:44;16.20;;;10.30;;
73678;SDS011;61978;52.742;16.962;2023-05-07T03:41:11;16.60;;;11.10;;
73678;SDS011;61978;52.742;16.962;2023-05-07T03:43:37;14.50;;;9.70;;
73678;SDS011;61978;52.742;16.962;2023-05-07T03:46:06;20.60;;;11.70;;
73678;SDS011;61978;52.742;16.962;2023-05-07T03:48:31;13.90;;;8.60;;
73678;SDS011;61978;52.742;16.962;2023-05-07T03:50:58;15.20;;;9.60;;
73678;SDS011;61978;52.742;16.962;2023-05-07T03:53:24;11.90;;;8.50;;
73678;SDS011;61978;52.742;16.962;2023-05-07T03:55:50;13.50;;;8.90;;
73678;SDS011;61978;52.742;16.962;2023-05-07T03:58:16;16.50;;;9.20;;
73678;SDS011;61978;52.742;16.962;2023-05-07T04:00:42;13.90;;;9.50;;
73678;SDS011;61978;52.742;16.962;2023-05-07T04:03:22;16.30;;;9.20;;
73678;SDS011;61978;52.742;16.962;2023-05-07T04:05:48;16.50;;;9.20;;
73678;SDS011;61978;52.742;16.962;2023-05-07T04:08:13;16.10;;;8.70;;
73678;SDS011;61978;52.742;16.962;2023-05-07T04:10:41;12.70;;;9.40;;
73678;SDS011;61978;52.742;16.962;2023-05-07T04:13:08;20.90;;;9.50;;
73678;SDS011;61978;52.742;16.962;2023-05-07T04:15:35;13.80;;;9.00;;
73678;SDS011;61978;52.742;16.962;2023-05-07T04:18:01;13.60;;;9.20;;
73678;SDS011;61978;52.742;16.962;2023-05-07T04:20:27;17.90;;;8.70;;
73678;SDS011;61978;52.742;16.962;2023-05-07T04:22:57;15.80;;;8.30;;
73678;SDS011;61978;52.742;16.962;2023-05-07T04:25:23;14.10;;;8.20;;
73678;SDS011;61978;52.742;16.962;2023-05-07T04:27:52;13.40;;;8.70;;
73678;SDS011;61978;52.742;16.962;2023-05-07T04:30:18;14.00;;;7.90;;
73678;SDS011;61978;52.742;16.962;2023-05-07T04:32:43;17.30;;;10.80;;
73678;SDS011;61978;52.742;16.962;2023-05-07T04:35:09;15.70;;;11.80;;
73678;SDS011;61978;52.742;16.962;2023-05-07T04:37:35;16.30;;;12.00;;
73678;SDS011;61978;52.742;16.962;2023-05-07T04:40:01;13.80;;;10.60;;
73678;SDS011;61978;52.742;16.962;2023-05-07T04:42:28;12.00;;;9.90;;
73678;SDS011;61978;52.742;16.962;2023-05-07T04:44:54;13.20;;;9.50;;
73678;SDS011;61978;52.742;16.962;2023-05-07T04:47:20;13.60;;;9.40;;
73678;SDS011;61978;52.742;16.962;2023-05-07T04:49:46;12.90;;;9.90;;
73678;SDS011;61978;52.742;16.962;2023-05-07T04:52:12;13.70;;;9.20;;
73678;SDS011;61978;52.742;16.962;2023-05-07T04:54:37;11.90;;;8.80;;
73678;SDS011;61978;52.742;16.962;2023-05-07T04:57:04;14.90;;;9.60;;
73678;SDS011;61978;52.742;16.962;2023-05-07T04:59:30;12.00;;;8.30;;
73678;SDS011;61978;52.742;16.962;2023-05-07T05:01:55;12.80;;;9.00;;
73678;SDS011;61978;52.742;16.962;2023-05-07T05:04:21;11.20;;;8.30;;
73678;SDS011;61978;52.742;16.962;2023-05-07T05:06:47;13.60;;;8.10;;
73678;SDS011;61978;52.742;16.962;2023-05-07T05:09:13;12.80;;;8.70;;
73678;SDS011;61978;52.742;16.962;2023-05-07T05:11:40;10.60;;;8.20;;
73678;SDS011;61978;52.742;16.962;2023-05-07T05:14:06;8.60;;;4.80;;
73678;SDS011;61978;52.742;16.962;2023-05-07T05:16:31;12.20;;;5.80;;
73678;SDS011;61978;52.742;16.962;2023-05-07T05:18:57;9.90;;;4.60;;
73678;SDS011;61978;52.742;16.962;2023-05-07T05:21:23;9.20;;;5.70;;
73678;SDS011;61978;52.742;16.962;2023-05-07T05:23:51;7.10;;;4.90;;
73678;SDS011;61978;52.742;16.962;2023-05-07T05:26:19;7.10;;;5.00;;
73678;SDS011;61978;52.742;16.962;2023-05-07T05:28:46;9.10;;;6.00;;
73678;SDS011;61978;52.742;16.962;2023-05-07T05:31:12;7.60;;;6.10;;
73678;SDS011;61978;52.742;16.962;2023-05-07T05:33:39;17.40;;;12.80;;
73678;SDS011;61978;52.742;16.962;2023-05-07T05:36:06;10.60;;;8.00;;
73678;SDS011;61978;52.742;16.962;2023-05-07T05:38:32;8.20;;;5.40;;
73678;SDS011;61978;52.742;16.962;2023-05-07T05:40:57;7.50;;;5.60;;
73678;SDS011;61978;52.742;16.962;2023-05-07T05:43:23;8.10;;;4.50;;
73678;SDS011;61978;52.742;16.962;2023-05-07T05:45:49;7.20;;;4.50;;
73678;SDS011;61978;52.742;16.962;2023-05-07T05:48:14;8.80;;;4.40;;
73678;SDS011;61978;52.742;16.962;2023-05-07T05:50:41;7.20;;;5.00;;
73678;SDS011;61978;52.742;16.962;2023-05-07T05:53:07;5.70;;;4.10;;
73678;SDS011;61978;52.742;16.962;2023-05-07T05:55:33;4.40;;;3.30;;
73678;SDS011;61978;52.742;16.962;2023-05-07T05:58:00;7.10;;;3.50;;
73678;SDS011;61978;52.742;16.962;2023-05-07T06:00:26;5.50;;;3.90;;
73678;SDS011;61978;52.742;16.962;2023-05-07T06:02:56;8.80;;;4.60;;
73678;SDS011;61978;52.742;16.962;2023-05-07T06:05:22;7.00;;;3.90;;
73678;SDS011;61978;52.742;16.962;2023-05-07T06:07:49;6.10;;;3.30;;
73678;SDS011;61978;52.742;16.962;2023-05-07T06:10:15;6.50;;;3.60;;
73678;SDS011;61978;52.742;16.962;2023-05-07T06:12:41;5.50;;;3.40;;
73678;SDS011;61978;52.742;16.962;2023-05-07T06:15:07;7.90;;;3.30;;
73678;SDS011;61978;52.742;16.962;2023-05-07T06:17:33;4.20;;;3.10;;
73678;SDS011;61978;52.742;16.962;2023-05-07T06:19:59;6.40;;;3.40;;
73678;SDS011;61978;52.742;16.962;2023-05-07T06:22:24;7.90;;;3.30;;
73678;SDS011;61978;52.742;16.962;2023-05-07T06:24:50;6.50;;;3.30;;
73678;SDS011;61978;52.742;16.962;2023-05-07T06:27:16;4.50;;;3.10;;
73678;SDS011;61978;52.742;16.962;2023-05-07T06:29:43;5.20;;;3.40;;
73678;SDS011;61978;52.742;16.962;2023-05-07T06:32:12;6.70;;;3.50;;
73678;SDS011;61978;52.742;16.962;2023-05-07T06:34:39;8.50;;;3.00;;
73678;SDS011;61978;52.742;16.962;2023-05-07T06:37:05;6.40;;;3.10;;
73678;SDS011;61978;52.742;16.962;2023-05-07T06:39:44;2.70;;;2.50;;
73678;SDS011;61978;52.742;16.962;2023-05-07T06:42:09;5.50;;;3.10;;
73678;SDS011;61978;52.742;16.962;2023-05-07T06:44:39;5.90;;;3.40;;
73678;SDS011;61978;52.742;16.962;2023-05-07T06:47:07;5.70;;;3.20;;
73678;SDS011;61978;52.742;16.962;2023-05-07T06:49:33;5.90;;;2.80;;
73678;SDS011;61978;52.742;16.962;2023-05-07T06:51:58;4.40;;;2.40;;
73678;SDS011;61978;52.742;16.962;2023-05-07T06:54:24;3.90;;;2.60;;
73678;SDS011;61978;52.742;16.962;2023-05-07T06:56:50;5.50;;;2.60;;
73678;SDS011;61978;52.742;16.962;2023-05-07T06:59:16;4.90;;;2.50;;
73678;SDS011;61978;52.742;16.962;2023-05-07T07:01:42;6.20;;;2.50;;
73678;SDS011;61978;52.742;16.962;2023-05-07T07:04:08;6.20;;;2.50;;
73678;SDS011;61978;52.742;16.962;2023-05-07T07:06:34;3.20;;;2.20;;
73678;SDS011;61978;52.742;16.962;2023-05-07T07:09:00;5.10;;;2.80;;
73678;SDS011;61978;52.742;16.962;2023-05-07T07:11:26;3.20;;;2.20;;
73678;SDS011;61978;52.742;16.962;2023-05-07T07:13:53;4.00;;;2.70;;
73678;SDS011;61978;52.742;16.962;2023-05-07T07:16:20;5.30;;;2.30;;
73678;SDS011;61978;52.742;16.962;2023-05-07T07:18:46;3.20;;;2.40;;
73678;SDS011;61978;52.742;16.962;2023-05-07T07:21:11;4.30;;;2.40;;
73678;SDS011;61978;52.742;16.962;2023-05-07T07:23:37;6.10;;;2.30;;
73678;SDS011;61978;52.742;16.962;2023-05-07T07:26:03;4.10;;;2.40;;
73678;SDS011;61978;52.742;16.962;2023-05-07T07:28:28;7.80;;;2.60;;
73678;SDS011;61978;52.742;16.962;2023-05-07T07:30:54;3.30;;;2.20;;
73678;SDS011;61978;52.742;16.962;2023-05-07T07:33:20;3.60;;;2.40;;
73678;SDS011;61978;52.742;16.962;2023-05-07T07:35:45;5.60;;;2.50;;
73678;SDS011;61978;52.742;16.962;2023-05-07T07:38:11;5.50;;;2.80;;
73678;SDS011;61978;52.742;16.962;2023-05-07T07:40:37;3.90;;;2.40;;
73678;SDS011;61978;52.742;16.962;2023-05-07T07:43:03;4.30;;;2.10;;
73678;SDS011;61978;52.742;16.962;2023-05-07T07:45:30;3.80;;;2.50;;
73678;SDS011;61978;52.742;16.962;2023-05-07T07:47:55;4.70;;;2.20;;
73678;SDS011;61978;52.742;16.962;2023-05-07T07:50:21;6.70;;;2.40;;
73678;SDS011;61978;52.742;16.962;2023-05-07T07:52:47;6.30;;;2.50;;
73678;SDS011;61978;52.742;16.962;2023-05-07T07:55:14;5.40;;;3.00;;
73678;SDS011;61978;52.742;16.962;2023-05-07T07:57:43;4.00;;;2.10;;
73678;SDS011;61978;52.742;16.962;2023-05-07T08:00:09;4.80;;;2.50;;
73678;SDS011;61978;52.742;16.962;2023-05-07T08:02:42;5.50;;;2.50;;
73678;SDS011;61978;52.742;16.962;2023-05-07T08:05:10;7.20;;;2.50;;
73678;SDS011;61978;52.742;16.962;2023-05-07T08:07:36;3.90;;;2.50;;
73678;SDS011;61978;52.742;16.962;2023-05-07T08:10:02;1.50;;;1.00;;
73678;SDS011;61978;52.742;16.962;2023-05-07T08:12:28;6.80;;;2.40;;
73678;SDS011;61978;52.742;16.962;2023-05-07T08:14:54;5.40;;;2.60;;
73678;SDS011;61978;52.742;16.962;2023-05-07T08:17:20;9.00;;;3.20;;
73678;SDS011;61978;52.742;16.962;2023-05-07T08:19:48;4.10;;;2.70;;
73678;SDS011;61978;52.742;16.962;2023-05-07T08:22:13;2.50;;;2.30;;
73678;SDS011;61978;52.742;16.962;2023-05-07T08:24:39;4.80;;;2.20;;
73678;SDS011;61978;52.742;16.962;2023-05-07T08:27:05;5.70;;;2.50;;
73678;SDS011;61978;52.742;16.962;2023-05-07T08:29:31;2.40;;;1.90;;
73678;SDS011;61978;52.742;16.962;2023-05-07T08:31:58;4.70;;;2.20;;
73678;SDS011;61978;52.742;16.962;2023-05-07T08:34:24;9.60;;;2.30;;
73678;SDS011;61978;52.742;16.962;2023-05-07T08:36:51;4.20;;;2.30;;
73678;SDS011;61978;52.742;16.962;2023-05-07T08:39:18;8.10;;;1.90;;
73678;SDS011;61978;52.742;16.962;2023-05-07T08:41:44;4.50;;;1.60;;
73678;SDS011;61978;52.742;16.962;2023-05-07T08:44:11;3.80;;;1.80;;
73678;SDS011;61978;52.742;16.962;2023-05-07T08:46:37;5.60;;;2.40;;
73678;SDS011;61978;52.742;16.962;2023-05-07T08:49:04;7.70;;;1.80;;
73678;SDS011;61978;52.742;16.962;2023-05-07T08:51:30;3.20;;;1.90;;
73678;SDS011;61978;52.742;16.962;2023-05-07T08:53:56;4.90;;;2.50;;
73678;SDS011;61978;52.742;16.962;2023-05-07T08:56:27;3.20;;;2.10;;
73678;SDS011;61978;52.742;16.962;2023-05-07T08:58:53;8.30;;;2.50;;
73678;SDS011;61978;52.742;16.962;2023-05-07T09:01:22;4.50;;;2.50;;
73678;SDS011;61978;52.742;16.962;2023-05-07T09:03:49;2.20;;;1.90;;
73678;SDS011;61978;52.742;16.962;2023-05-07T09:06:15;3.90;;;1.90;;
73678;SDS011;61978;52.742;16.962;2023-05-07T09:08:52;6.90;;;2.90;;
73678;SDS011;61978;52.742;16.962;2023-05-07T09:11:22;4.80;;;2.70;;
73678;SDS011;61978;52.742;16.962;2023-05-07T09:13:54;7.10;;;2.30;;
73678;SDS011;61978;52.742;16.962;2023-05-07T09:16:21;3.50;;;1.90;;
73678;SDS011;61978;52.742;16.962;2023-05-07T09:18:48;2.20;;;2.00;;
73678;SDS011;61978;52.742;16.962;2023-05-07T09:21:18;3.00;;;2.20;;
73678;SDS011;61978;52.742;16.962;2023-05-07T09:23:44;3.40;;;2.00;;
73678;SDS011;61978;52.742;16.962;2023-05-07T09:26:10;4.20;;;1.70;;
73678;SDS011;61978;52.742;16.962;2023-05-07T09:28:38;5.90;;;2.10;;
73678;SDS011;61978;52.742;16.962;2023-05-07T09:31:05;3.30;;;2.40;;
73678;SDS011;61978;52.742;16.962;2023-05-07T09:33:31;3.90;;;1.90;;
73678;SDS011;61978;52.742;16.962;2023-05-07T09:35:57;4.80;;;2.40;;
73678;SDS011;61978;52.742;16.962;2023-05-07T09:38:25;2.50;;;1.90;;
73678;SDS011;61978;52.742;16.962;2023-05-07T09:41:01;4.60;;;2.10;;
73678;SDS011;61978;52.742;16.962;2023-05-07T09:43:31;1.70;;;1.30;;
73678;SDS011;61978;52.742;16.962;2023-05-07T09:45:57;4.20;;;2.40;;
73678;SDS011;61978;52.742;16.962;2023-05-07T09:48:24;2.50;;;2.10;;
73678;SDS011;61978;52.742;16.962;2023-05-07T09:50:53;3.10;;;1.80;;
73678;SDS011;61978;52.742;16.962;2023-05-07T09:53:24;3.60;;;2.30;;
73678;SDS011;61978;52.742;16.962;2023-05-07T09:55:50;4.40;;;2.30;;
73678;SDS011;61978;52.742;16.962;2023-05-07T09:58:18;3.00;;;2.30;;
73678;SDS011;61978;52.742;16.962;2023-05-07T10:00:45;3.60;;;2.20;;
73678;SDS011;61978;52.742;16.962;2023-05-07T10:03:11;2.60;;;2.20;;
73678;SDS011;61978;52.742;16.962;2023-05-07T10:05:48;7.20;;;2.00;;
73678;SDS011;61978;52.742;16.962;2023-05-07T10:08:14;6.30;;;1.80;;
73678;SDS011;61978;52.742;16.962;2023-05-07T10:10:46;4.30;;;2.20;;
73678;SDS011;61978;52.742;16.962;2023-05-07T10:13:14;3.70;;;2.30;;
73678;SDS011;61978;52.742;16.962;2023-05-07T10:15:44;7.20;;;6.30;;
73678;SDS011;61978;52.742;16.962;2023-05-07T10:18:10;5.60;;;2.30;;
73678;SDS011;61978;52.742;16.962;2023-05-07T10:20:37;4.50;;;2.40;;
73678;SDS011;61978;52.742;16.962;2023-05-07T10:23:04;5.40;;;2.70;;
73678;SDS011;61978;52.742;16.962;2023-05-07T10:25:36;5.50;;;2.00;;
73678;SDS011;61978;52.742;16.962;2023-05-07T10:28:15;4.50;;;2.30;;
73678;SDS011;61978;52.742;16.962;2023-05-07T10:33:09;4.20;;;2.40;;
73678;SDS011;61978;52.742;16.962;2023-05-07T10:35:40;3.30;;;2.80;;
73678;SDS011;61978;52.742;16.962;2023-05-07T10:38:06;7.00;;;3.40;;
73678;SDS011;61978;52.742;16.962;2023-05-07T10:40:34;5.50;;;2.70;;
73678;SDS011;61978;52.742;16.962;2023-05-07T10:43:01;5.30;;;2.80;;
73678;SDS011;61978;52.742;16.962;2023-05-07T10:45:30;5.20;;;2.30;;
73678;SDS011;61978;52.742;16.962;2023-05-07T10:48:07;6.90;;;2.50;;
73678;SDS011;61978;52.742;16.962;2023-05-07T10:50:36;5.80;;;2.20;;
73678;SDS011;61978;52.742;16.962;2023-05-07T10:53:21;4.20;;;2.50;;
73678;SDS011;61978;52.742;16.962;2023-05-07T10:58:44;2.90;;;1.80;;
73678;SDS011;61978;52.742;16.962;2023-05-07T11:02:05;2.00;;;1.90;;
73678;SDS011;61978;52.742;16.962;2023-05-07T11:04:15;2.70;;;1.50;;
73678;SDS011;61978;52.742;16.962;2023-05-07T11:07:32;1.90;;;1.70;;
73678;SDS011;61978;52.742;16.962;2023-05-07T11:15:04;2.30;;;1.60;;
73678;SDS011;61978;52.742;16.962;2023-05-07T11:17:32;4.50;;;1.50;;
73678;SDS011;61978;52.742;16.962;2023-05-07T11:20:02;5.10;;;1.60;;
73678;SDS011;61978;52.742;16.962;2023-05-07T11:23:03;2.80;;;1.50;;
73678;SDS011;61978;52.742;16.962;2023-05-07T11:25:36;1.90;;;1.10;;
73678;SDS011;61978;52.742;16.962;2023-05-07T11:28:07;6.70;;;1.70;;
73678;SDS011;61978;52.742;16.962;2023-05-07T11:30:38;2.80;;;1.50;;
73678;SDS011;61978;52.742;16.962;2023-05-07T11:33:05;3.40;;;1.30;;
73678;SDS011;61978;52.742;16.962;2023-05-07T11:35:31;3.90;;;1.30;;
73678;SDS011;61978;52.742;16.962;2023-05-07T11:37:59;5.30;;;1.10;;
73678;SDS011;61978;52.742;16.962;2023-05-07T11:40:26;6.90;;;3.00;;
73678;SDS011;61978;52.742;16.962;2023-05-07T11:42:53;1.80;;;1.30;;
73678;SDS011;61978;52.742;16.962;2023-05-07T11:45:22;2.60;;;1.70;;
73678;SDS011;61978;52.742;16.962;2023-05-07T11:47:49;3.30;;;1.10;;
73678;SDS011;61978;52.742;16.962;2023-05-07T11:50:15;3.00;;;1.70;;
73678;SDS011;61978;52.742;16.962;2023-05-07T11:52:49;2.60;;;1.70;;
73678;SDS011;61978;52.742;16.962;2023-05-07T11:55:18;11.10;;;2.70;;
73678;SDS011;61978;52.742;16.962;2023-05-07T11:57:52;5.80;;;2.10;;
73678;SDS011;61978;52.742;16.962;2023-05-07T12:00:18;3.00;;;1.40;;
73678;SDS011;61978;52.742;16.962;2023-05-07T12:02:45;3.90;;;1.40;;
73678;SDS011;61978;52.742;16.962;2023-05-07T12:05:11;2.10;;;1.30;;
73678;SDS011;61978;52.742;16.962;2023-05-07T12:07:36;2.10;;;1.50;;
73678;SDS011;61978;52.742;16.962;2023-05-07T12:10:05;4.30;;;1.60;;
73678;SDS011;61978;52.742;16.962;2023-05-07T12:12:37;2.40;;;1.20;;
73678;SDS011;61978;52.742;16.962;2023-05-07T12:15:03;2.80;;;1.30;;
73678;SDS011;61978;52.742;16.962;2023-05-07T12:17:29;3.20;;;1.70;;
73678;SDS011;61978;52.742;16.962;2023-05-07T12:19:55;2.20;;;1.70;;
73678;SDS011;61978;52.742;16.962;2023-05-07T12:22:23;3.00;;;1.50;;
73678;SDS011;61978;52.742;16.962;2023-05-07T12:24:58;3.10;;;1.90;;
73678;SDS011;61978;52.742;16.962;2023-05-07T12:27:25;2.60;;;1.80;;
73678;SDS011;61978;52.742;16.962;2023-05-07T12:29:53;2.80;;;1.70;;
73678;SDS011;61978;52.742;16.962;2023-05-07T12:32:20;3.40;;;1.60;;
73678;SDS011;61978;52.742;16.962;2023-05-07T12:34:46;3.70;;;1.80;;
73678;SDS011;61978;52.742;16.962;2023-05-07T12:37:12;3.40;;;1.80;;
73678;SDS011;61978;52.742;16.962;2023-05-07T12:39:47;1.60;;;1.40;;
73678;SDS011;61978;52.742;16.962;2023-05-07T12:42:16;2.90;;;1.90;;
73678;SDS011;61978;52.742;16.962;2023-05-07T12:45:00;2.10;;;1.70;;
73678;SDS011;61978;52.742;16.962;2023-05-07T12:47:43;3.80;;;1.50;;
73678;SDS011;61978;52.742;16.962;2023-05-07T12:50:10;1.90;;;1.20;;
73678;SDS011;61978;52.742;16.962;2023-05-07T12:52:36;3.10;;;1.30;;
73678;SDS011;61978;52.742;16.962;2023-05-07T12:55:08;3.80;;;1.70;;
73678;SDS011;61978;52.742;16.962;2023-05-07T12:58:17;1.40;;;1.30;;
73678;SDS011;61978;52.742;16.962;2023-05-07T13:00:33;2.40;;;1.40;;
73678;SDS011;61978;52.742;16.962;2023-05-07T13:02:59;5.80;;;2.40;;
73678;SDS011;61978;52.742;16.962;2023-05-07T13:05:24;2.20;;;2.00;;
73678;SDS011;61978;52.742;16.962;2023-05-07T13:07:56;7.70;;;2.50;;
73678;SDS011;61978;52.742;16.962;2023-05-07T13:10:23;8.20;;;2.20;;
73678;SDS011;61978;52.742;16.962;2023-05-07T13:12:50;2.50;;;1.80;;
73678;SDS011;61978;52.742;16.962;2023-05-07T13:15:16;4.40;;;1.90;;
73678;SDS011;61978;52.742;16.962;2023-05-07T13:17:51;4.80;;;1.80;;
73678;SDS011;61978;52.742;16.962;2023-05-07T13:20:28;2.30;;;1.70;;
73678;SDS011;61978;52.742;16.962;2023-05-07T13:22:54;3.30;;;2.10;;
73678;SDS011;61978;52.742;16.962;2023-05-07T13:25:20;4.70;;;4.00;;
73678;SDS011;61978;52.742;16.962;2023-05-07T13:27:45;3.90;;;1.90;;
73678;SDS011;61978;52.742;16.962;2023-05-07T13:30:11;9.70;;;8.50;;
73678;SDS011;61978;52.742;16.962;2023-05-07T13:32:37;5.00;;;4.10;;
73678;SDS011;61978;52.742;16.962;2023-05-07T13:35:02;5.40;;;1.60;;
73678;SDS011;61978;52.742;16.962;2023-05-07T13:37:50;3.70;;;1.70;;
73678;SDS011;61978;52.742;16.962;2023-05-07T13:40:17;4.10;;;1.70;;
73678;SDS011;61978;52.742;16.962;2023-05-07T13:42:43;3.70;;;1.90;;
73678;SDS011;61978;52.742;16.962;2023-05-07T13:45:08;6.00;;;1.70;;
73678;SDS011;61978;52.742;16.962;2023-05-07T13:47:41;4.30;;;2.00;;
73678;SDS011;61978;52.742;16.962;2023-05-07T13:50:10;3.90;;;1.60;;
73678;SDS011;61978;52.742;16.962;2023-05-07T13:52:42;2.80;;;1.90;;
73678;SDS011;61978;52.742;16.962;2023-05-07T13:55:09;4.10;;;1.80;;
73678;SDS011;61978;52.742;16.962;2023-05-07T13:57:53;3.30;;;2.10;;
73678;SDS011;61978;52.742;16.962;2023-05-07T14:00:20;3.80;;;2.40;;
73678;SDS011;61978;52.742;16.962;2023-05-07T14:02:45;3.20;;;1.80;;
73678;SDS011;61978;52.742;16.962;2023-05-07T14:08:00;2.00;;;1.80;;
73678;SDS011;61978;52.742;16.962;2023-05-07T14:13:58;2.30;;;1.60;;
73678;SDS011;61978;52.742;16.962;2023-05-07T14:16:24;2.00;;;1.80;;
73678;SDS011;61978;52.742;16.962;2023-05-07T14:19:05;4.00;;;2.60;;
73678;SDS011;61978;52.742;16.962;2023-05-07T14:28:28;17.60;;;9.00;;
73678;SDS011;61978;52.742;16.962;2023-05-07T14:30:59;69.10;;;35.80;;
73678;SDS011;61978;52.742;16.962;2023-05-07T14:33:31;6.60;;;2.80;;
73678;SDS011;61978;52.742;16.962;2023-05-07T14:36:00;27.30;;;15.00;;
73678;SDS011;61978;52.742;16.962;2023-05-07T14:41:17;3.40;;;2.30;;
73678;SDS011;61978;52.742;16.962;2023-05-07T14:43:43;5.90;;;2.60;;
73678;SDS011;61978;52.742;16.962;2023-05-07T14:49:02;6.30;;;2.20;;
73678;SDS011;61978;52.742;16.962;2023-05-07T14:51:28;3.50;;;2.00;;
73678;SDS011;61978;52.742;16.962;2023-05-07T14:53:53;3.10;;;2.00;;
73678;SDS011;61978;52.742;16.962;2023-05-07T14:56:20;4.20;;;2.10;;
73678;SDS011;61978;52.742;16.962;2023-05-07T14:58:48;3.70;;;1.80;;